Time;durP1;ratioP1;P1;durP2;ratioP2;P2;SDS_P1;SDS_P2;PMS_P1;PMS_P2;Temp;Humidity;BMP_temperature;BMP_pressure;BME280_temperature;BME280_humidity;BME280_pressure;Samples;Min_cycle;Max_cycle;Signal;HPM_P1;HPM_P2
2023/07/19 04:01:36;;;;;;;;;;;20.20;99.90;;;;;;5478068;23;20305;-70
2023/07/19 04:04:03;;;;;;;;;;;20.10;99.90;;;;;;5021744;28;19913;-69
2023/07/19 04:06:29;;;;;;;;;;;20.00;99.90;;;;;;5013025;28;19964;-70
2023/07/19 04:08:55;;;;;;;;;;;20.00;99.90;;;;;;5012643;28;19917;-70
2023/07/19 04:11:20;;;;;;;;;;;20.20;99.90;;;;;;5004920;28;19924;-70
2023/07/19 04:13:46;;;;;;;;;;;20.10;99.90;;;;;;5017639;23;19933;-62
2023/07/19 04:16:11;;;;;;;;;;;20.20;99.90;;;;;;4994810;28;20012;-63
2023/07/19 04:18:37;;;;;;;;;;;20.20;99.90;;;;;;4995235;28;20380;-62
2023/07/19 04:21:03;;;;;;;;;;;20.40;99.90;;;;;;4993475;28;19909;-63
2023/07/19 04:23:28;;;;;;;;;;;20.40;99.90;;;;;;4995049;28;20266;-63
2023/07/19 04:25:54;;;;;;;;;;;20.30;99.90;;;;;;5009738;28;20330;-61
2023/07/19 04:28:19;;;;;;;;;;;20.20;99.90;;;;;;4993146;28;19996;-61
2023/07/19 04:30:45;;;;;;;;;;;20.20;99.90;;;;;;4994305;28;19949;-63
2023/07/19 04:33:10;;;;;;;;;;;20.10;99.90;;;;;;4994895;28;19916;-62
2023/07/19 04:35:36;;;;;;;;;;;20.10;99.90;;;;;;4975968;28;19922;-62
2023/07/19 04:38:03;;;;;;;;;;;20.30;99.90;;;;;;4986185;28;20286;-63
2023/07/19 04:40:29;;;;;;;;;;;20.40;99.90;;;;;;4979252;28;19914;-59
2023/07/19 04:42:55;;;;;;;;;;;20.50;99.90;;;;;;4989571;28;19928;-61
2023/07/19 04:45:20;;;;;;;;;;;20.40;99.90;;;;;;4980549;28;20367;-63
2023/07/19 04:47:46;;;;;;;;;;;20.40;99.90;;;;;;4993810;28;20267;-62
2023/07/19 04:50:11;;;;;;;;;;;20.50;99.90;;;;;;4980974;28;19925;-62
2023/07/19 04:52:37;;;;;;;;;;;20.50;99.90;;;;;;4991123;28;19917;-63
2023/07/19 04:55:03;;;;;;;;;;;20.50;99.90;;;;;;5005232;28;20351;-63
2023/07/19 04:57:28;;;;;;;;;;;20.50;99.90;;;;;;4980714;28;19910;-62
2023/07/19 04:59:54;;;;;;;;;;;20.60;99.90;;;;;;4993493;28;19917;-62
2023/07/19 05:02:19;;;;;;;;;;;20.60;99.90;;;;;;4994904;28;19914;-63
2023/07/19 05:04:45;;;;;;;;;;;20.60;99.90;;;;;;4989172;28;20363;-62
2023/07/19 05:07:10;;;;;;;;;;;20.60;99.90;;;;;;4976987;28;20418;-63
2023/07/19 05:09:36;;;;;;;;;;;20.70;99.90;;;;;;4974903;28;19915;-62
2023/07/19 05:12:02;;;;;;;;;;;20.60;99.90;;;;;;4990471;28;19917;-64
2023/07/19 05:14:27;;;;;;;;;;;20.50;99.90;;;;;;4977445;28;19990;-63
2023/07/19 05:16:53;;;;;;;;;;;20.40;99.90;;;;;;4993851;28;19965;-63
2023/07/19 05:19:19;;;;;;;;;;;20.60;99.90;;;;;;4996513;28;19910;-62
2023/07/19 05:21:44;;;;;;;;;;;20.80;99.90;;;;;;4998391;28;19910;-61
2023/07/19 05:24:11;;;;;;;;;;;20.80;99.90;;;;;;5012973;28;19914;-63
2023/07/19 05:26:37;;;;;;;;;;;20.70;99.90;;;;;;4998711;28;19916;-63
2023/07/19 05:29:03;;;;;;;;;;;20.70;99.90;;;;;;4997863;28;19910;-64
2023/07/19 05:31:29;;;;;;;;;;;20.70;99.90;;;;;;4999109;28;19921;-62
2023/07/19 05:33:54;;;;;;;;;;;20.60;99.90;;;;;;4999337;28;20355;-65
2023/07/19 05:36:20;;;;;;;;;;;20.70;99.90;;;;;;4997607;28;19918;-64
2023/07/19 05:38:45;;;;;;;;;;;20.80;99.90;;;;;;4994613;28;19917;-65
2023/07/19 05:41:10;;;;;;;;;;;20.90;99.90;;;;;;4990311;28;20009;-65
2023/07/19 05:43:36;;;;;;;;;;;21.10;99.90;;;;;;4981401;28;19914;-68
2023/07/19 05:46:05;;;;;;;;;;;21.20;99.90;;;;;;4997597;28;19952;-65
2023/07/19 05:48:31;;;;;;;;;;;21.20;99.90;;;;;;4997496;28;19916;-65
2023/07/19 05:50:56;;;;;;;;;;;21.10;99.90;;;;;;4997270;28;19913;-63
2023/07/19 05:53:22;;;;;;;;;;;21.20;99.90;;;;;;4996291;28;19917;-67
2023/07/19 05:55:47;;;;;;;;;;;21.30;99.90;;;;;;4997315;28;20356;-67
2023/07/19 05:58:12;;;;;;;;;;;21.40;99.90;;;;;;4997291;28;19913;-61
2023/07/19 06:00:40;;;;;;;;;;;21.40;99.90;;;;;;4997115;28;19949;-61
2023/07/19 06:03:05;;;;;;;;;;;21.40;99.90;;;;;;4997242;28;20283;-60
2023/07/19 06:05:31;;;;;;;;;;;21.30;99.90;;;;;;4999166;28;19917;-66
2023/07/19 06:07:57;;;;;;;;;;;21.40;99.90;;;;;;4998340;28;19910;-67
2023/07/19 06:10:22;;;;;;;;;;;21.30;99.90;;;;;;4996007;28;20289;-66
2023/07/19 06:12:49;;;;;;;;;;;21.30;99.90;;;;;;4995167;28;19936;-66
2023/07/19 06:15:15;;;;;;;;;;;21.30;99.90;;;;;;4997000;28;19968;-65
2023/07/19 06:17:40;;;;;;;;;;;21.30;99.90;;;;;;4996064;28;20367;-66
2023/07/19 06:20:07;;;;;;;;;;;21.30;99.90;;;;;;4997137;28;19910;-66
2023/07/19 06:22:32;;;;;;;;;;;21.40;99.90;;;;;;4997635;28;19976;-67
2023/07/19 06:24:58;;;;;;;;;;;21.50;99.90;;;;;;4997449;28;19913;-66
2023/07/19 06:27:23;;;;;;;;;;;21.50;99.90;;;;;;4997752;28;19967;-68
2023/07/19 06:29:50;;;;;;;;;;;21.60;99.90;;;;;;4996218;28;20360;-67
2023/07/19 06:32:15;;;;;;;;;;;21.80;99.90;;;;;;4997581;28;19910;-66
2023/07/19 06:34:41;;;;;;;;;;;21.90;99.90;;;;;;4997915;28;19917;-65
2023/07/19 06:37:06;;;;;;;;;;;22.00;99.90;;;;;;4998748;28;19916;-66
2023/07/19 06:39:31;;;;;;;;;;;22.10;99.90;;;;;;4998029;28;20013;-65
2023/07/19 06:41:57;;;;;;;;;;;22.10;99.90;;;;;;4998951;28;19921;-68
2023/07/19 06:44:22;;;;;;;;;;;22.10;99.90;;;;;;4996760;28;19910;-66
2023/07/19 06:46:48;;;;;;;;;;;22.20;99.90;;;;;;4998306;28;20382;-64
2023/07/19 06:49:13;;;;;;;;;;;22.30;99.90;;;;;;4999427;28;19910;-66
2023/07/19 06:51:39;;;;;;;;;;;22.40;99.90;;;;;;4999408;28;19913;-65
2023/07/19 06:54:04;;;;;;;;;;;22.50;99.90;;;;;;4999092;28;19957;-65
2023/07/19 06:56:30;;;;;;;;;;;22.60;99.90;;;;;;4999578;28;20370;-65
2023/07/19 06:58:55;;;;;;;;;;;22.70;99.90;;;;;;4998932;28;19996;-65
2023/07/19 07:01:21;;;;;;;;;;;22.70;99.90;;;;;;4999272;28;19962;-65
2023/07/19 07:03:46;;;;;;;;;;;22.70;99.90;;;;;;4998439;28;19937;-64
2023/07/19 07:06:12;;;;;;;;;;;22.70;99.90;;;;;;4997441;28;19957;-65
2023/07/19 07:08:37;;;;;;;;;;;22.80;99.90;;;;;;4997678;28;19976;-65
2023/07/19 07:11:04;;;;;;;;;;;22.90;99.90;;;;;;4998870;28;19913;-65
2023/07/19 07:13:30;;;;;;;;;;;23.00;99.90;;;;;;4998961;28;19960;-65
2023/07/19 07:15:55;;;;;;;;;;;23.10;99.90;;;;;;4998453;28;19922;-65
2023/07/19 07:18:21;;;;;;;;;;;23.20;99.90;;;;;;4998528;28;20290;-64
2023/07/19 07:20:46;;;;;;;;;;;23.20;99.90;;;;;;4998179;28;20291;-64
2023/07/19 07:23:12;;;;;;;;;;;23.30;99.90;;;;;;4998617;28;19910;-65
2023/07/19 07:25:37;;;;;;;;;;;23.40;99.90;;;;;;4998283;28;19957;-65
2023/07/19 07:28:03;;;;;;;;;;;23.50;99.90;;;;;;4998818;28;19910;-65
2023/07/19 07:30:28;;;;;;;;;;;23.60;99.90;;;;;;4998120;28;20398;-64
2023/07/19 07:32:54;;;;;;;;;;;23.70;99.90;;;;;;4998580;28;19973;-65
2023/07/19 07:35:19;;;;;;;;;;;23.80;99.90;;;;;;4997748;28;19910;-64
2023/07/19 07:37:45;;;;;;;;;;;24.00;99.90;;;;;;5013448;28;19917;-65
2023/07/19 07:40:11;;;;;;;;;;;24.10;99.90;;;;;;5013717;28;20012;-65
2023/07/19 07:42:39;;;;;;;;;;;24.30;99.90;;;;;;5014208;28;19933;-65
2023/07/19 07:45:05;;;;;;;;;;;24.30;99.90;;;;;;5013291;28;19910;-65
2023/07/19 07:47:31;;;;;;;;;;;24.40;99.90;;;;;;4996521;28;19997;-65
2023/07/19 07:49:57;;;;;;;;;;;24.40;99.90;;;;;;4997811;28;20439;-65
2023/07/19 07:52:22;;;;;;;;;;;24.50;99.90;;;;;;4997359;28;19910;-65
2023/07/19 07:54:48;;;;;;;;;;;24.60;99.90;;;;;;4995079;28;19945;-65
2023/07/19 07:57:14;;;;;;;;;;;24.70;99.90;;;;;;4996968;28;20267;-65
2023/07/19 07:59:39;;;;;;;;;;;24.90;99.90;;;;;;4997011;28;19913;-63
2023/07/19 08:02:06;;;;;;;;;;;25.00;99.90;;;;;;4996722;28;19910;-64
2023/07/19 08:04:31;;;;;;;;;;;25.10;99.90;;;;;;4996190;28;19909;-65
2023/07/19 08:06:56;;;;;;;;;;;25.30;99.90;;;;;;4995179;28;19917;-64
2023/07/19 08:09:22;;;;;;;;;;;25.50;99.50;;;;;;4997471;28;19910;-65
2023/07/19 08:11:48;;;;;;;;;;;25.70;99.40;;;;;;5012245;28;19956;-65
2023/07/19 08:14:14;;;;;;;;;;;26.00;99.00;;;;;;5011621;28;20057;-65
2023/07/19 08:16:39;;;;;;;;;;;26.40;97.80;;;;;;5013310;28;19965;-65
2023/07/19 08:19:05;;;;;;;;;;;27.20;96.90;;;;;;4996444;28;19910;-65
2023/07/19 08:21:33;;;;;;;;;;;29.40;94.60;;;;;;4997119;28;19917;-64
2023/07/19 08:23:59;;;;;;;;;;;32.30;90.90;;;;;;4996211;28;20008;-65
2023/07/19 08:26:24;;;;;;;;;;;34.50;81.60;;;;;;4995999;28;19937;-64
2023/07/19 08:28:50;;;;;;;;;;;35.60;76.30;;;;;;5010139;28;19910;-65
2023/07/19 08:31:16;;;;;;;;;;;37.10;71.50;;;;;;4994833;28;19918;-64
2023/07/19 08:33:41;;;;;;;;;;;37.80;68.60;;;;;;5009942;28;19961;-64
2023/07/19 08:36:07;;;;;;;;;;;39.40;66.30;;;;;;4996030;28;20321;-65
2023/07/19 08:38:33;;;;;;;;;;;40.60;62.50;;;;;;4995671;28;19910;-65
2023/07/19 08:41:00;;;;;;;;;;;41.40;60.50;;;;;;4996894;28;19914;-64
2023/07/19 08:43:26;;;;;;;;;;;42.20;58.60;;;;;;4997293;28;19910;-65
2023/07/19 08:45:52;;;;;;;;;;;43.40;56.60;;;;;;5011760;28;19917;-64
2023/07/19 08:48:18;;;;;;;;;;;43.50;54.70;;;;;;4995074;28;19913;-64
2023/07/19 08:50:45;;;;;;;;;;;44.00;54.10;;;;;;5010853;28;19972;-64
2023/07/19 08:53:10;;;;;;;;;;;45.00;52.60;;;;;;4995302;28;20204;-64
2023/07/19 08:55:36;;;;;;;;;;;44.90;52.50;;;;;;5011228;28;20040;-64
2023/07/19 08:58:01;;;;;;;;;;;45.10;52.90;;;;;;4995882;28;20323;-64
2023/07/19 09:00:30;;;;;;;;;;;44.60;52.30;;;;;;5010495;28;19914;-64
2023/07/19 09:02:55;;;;;;;;;;;43.70;52.10;;;;;;5010477;28;19910;-65
2023/07/19 09:05:21;;;;;;;;;;;43.30;51.70;;;;;;4996059;28;19917;-64
2023/07/19 09:07:47;;;;;;;;;;;43.30;52.10;;;;;;4995284;28;20051;-64
2023/07/19 09:10:13;;;;;;;;;;;43.80;51.60;;;;;;4995979;28;19921;-64
2023/07/19 09:12:40;;;;;;;;;;;44.20;50.80;;;;;;4996171;28;19910;-65
2023/07/19 09:15:09;;;;;;;;;;;44.70;50.80;;;;;;4995871;28;20290;-65
2023/07/19 09:17:37;;;;;;;;;;;45.20;49.70;;;;;;4996093;28;20314;-65
2023/07/19 09:20:04;;;;;;;;;;;44.70;49.90;;;;;;4997055;28;19961;-65
2023/07/19 09:22:29;;;;;;;;;;;43.40;50.20;;;;;;4996094;28;19909;-64
2023/07/19 09:25:01;;;;;;;;;;;41.90;51.50;;;;;;4996216;28;19917;-65
2023/07/19 09:27:27;;;;;;;;;;;41.40;51.80;;;;;;4994695;28;19964;-65
2023/07/19 09:29:53;;;;;;;;;;;40.90;52.20;;;;;;4996402;28;19917;-64
2023/07/19 09:32:19;;;;;;;;;;;39.30;53.00;;;;;;4996330;28;19913;-65
2023/07/19 09:34:44;;;;;;;;;;;40.20;52.60;;;;;;4996751;28;19910;-64
2023/07/19 09:37:10;;;;;;;;;;;41.20;51.90;;;;;;4996190;28;19965;-64
2023/07/19 09:39:36;;;;;;;;;;;42.20;51.10;;;;;;4996694;28;19917;-65
2023/07/19 09:42:03;;;;;;;;;;;43.00;50.00;;;;;;4995794;28;19973;-65
2023/07/19 09:44:28;;;;;;;;;;;43.70;49.60;;;;;;4995325;28;19914;-64
2023/07/19 09:46:54;;;;;;;;;;;43.40;49.00;;;;;;4996735;28;19917;-64
2023/07/19 09:49:20;;;;;;;;;;;42.60;49.70;;;;;;4996264;28;20436;-65
2023/07/19 09:51:47;;;;;;;;;;;42.70;49.70;;;;;;4995018;28;20004;-65
2023/07/19 09:54:13;;;;;;;;;;;43.30;49.60;;;;;;4995887;28;19917;-65
2023/07/19 09:56:39;;;;;;;;;;;43.10;48.70;;;;;;4996167;28;20285;-65
2023/07/19 09:59:06;;;;;;;;;;;42.30;49.10;;;;;;4996309;28;19910;-64
2023/07/19 10:01:31;;;;;;;;;;;41.70;50.20;;;;;;4996120;28;19917;-65
2023/07/19 10:03:57;;;;;;;;;;;40.80;50.40;;;;;;4996198;28;19965;-64
2023/07/19 10:06:28;;;;;;;;;;;40.20;51.00;;;;;;4998858;28;20279;-65
2023/07/19 10:09:13;;;;;;;;;;;39.60;51.40;;;;;;4998413;28;19910;-65
2023/07/19 10:11:42;;;;;;;;;;;41.10;50.80;;;;;;4999152;28;19917;-64
2023/07/19 10:14:07;;;;;;;;;;;41.90;49.60;;;;;;5016156;22;19999;-65
2023/07/19 10:16:36;;;;;;;;;;;42.50;47.70;;;;;;5031956;28;20377;-66
2023/07/19 10:19:11;;;;;;;;;;;43.20;47.10;;;;;;5036341;28;20043;-65
2023/07/19 10:21:37;;;;;;;;;;;43.60;46.90;;;;;;5036236;28;19913;-66
2023/07/19 10:24:06;;;;;;;;;;;43.90;47.40;;;;;;5036030;28;19963;-66
2023/07/19 10:26:34;;;;;;;;;;;44.20;47.70;;;;;;5037025;28;20004;-66
2023/07/19 10:29:01;;;;;;;;;;;43.90;48.20;;;;;;5037802;28;19936;-67
2023/07/19 10:31:26;;;;;;;;;;;44.20;48.30;;;;;;5037086;28;19967;-67
2023/07/19 10:33:55;;;;;;;;;;;44.30;47.90;;;;;;5039120;28;19909;-66
2023/07/19 10:36:20;;;;;;;;;;;44.20;48.10;;;;;;5038754;28;19931;-66
2023/07/19 10:38:46;;;;;;;;;;;44.80;47.60;;;;;;5038680;28;20007;-66
2023/07/19 10:41:12;;;;;;;;;;;43.70;47.50;;;;;;5038988;28;19916;-66
2023/07/19 10:43:38;;;;;;;;;;;42.70;48.40;;;;;;5038295;28;19916;-66
2023/07/19 10:46:07;;;;;;;;;;;42.80;48.50;;;;;;5038061;28;19917;-66
2023/07/19 10:48:33;;;;;;;;;;;42.90;48.10;;;;;;5037247;28;19949;-66
2023/07/19 10:51:00;;;;;;;;;;;43.20;48.20;;;;;;5035835;28;19952;-66
2023/07/19 10:53:26;;;;;;;;;;;43.40;48.00;;;;;;5035511;28;20250;-66
2023/07/19 10:55:52;;;;;;;;;;;43.10;47.70;;;;;;5035695;28;19909;-66
2023/07/19 10:58:18;;;;;;;;;;;43.10;48.20;;;;;;5035643;28;19995;-66
2023/07/19 11:00:43;;;;;;;;;;;43.20;47.90;;;;;;5035293;28;19909;-66
2023/07/19 11:03:13;;;;;;;;;;;41.20;49.00;;;;;;5033973;28;19913;-66
2023/07/19 11:05:40;;;;;;;;;;;40.00;49.90;;;;;;5034297;28;20296;-66
2023/07/19 11:08:06;;;;;;;;;;;37.90;51.20;;;;;;5035493;28;20438;-66
2023/07/19 11:10:31;;;;;;;;;;;36.70;52.80;;;;;;5035225;28;19967;-66
2023/07/19 11:12:57;;;;;;;;;;;35.60;53.90;;;;;;5033891;28;19913;-66
2023/07/19 11:15:25;;;;;;;;;;;34.70;55.50;;;;;;5010171;28;19965;-66
2023/07/19 11:17:55;;;;;;;;;;;34.60;55.90;;;;;;5006520;28;19933;-66
2023/07/19 11:20:26;;;;;;;;;;;34.20;56.60;;;;;;5003955;28;19910;-65
2023/07/19 11:22:52;;;;;;;;;;;33.80;57.30;;;;;;5005035;28;19913;-66
2023/07/19 11:25:20;;;;;;;;;;;33.90;57.80;;;;;;5005724;28;19933;-66
2023/07/19 11:27:48;;;;;;;;;;;33.80;57.80;;;;;;5002805;28;19917;-66
2023/07/19 11:30:14;;;;;;;;;;;33.50;58.40;;;;;;4996731;28;20001;-65
2023/07/19 11:32:39;;;;;;;;;;;33.30;58.70;;;;;;4995936;28;20346;-65
2023/07/19 11:35:04;;;;;;;;;;;32.80;59.20;;;;;;4995762;28;19982;-65
2023/07/19 11:37:33;;;;;;;;;;;32.60;59.90;;;;;;4995428;28;19910;-65
2023/07/19 11:40:04;;;;;;;;;;;32.60;60.30;;;;;;4995544;28;20270;-65
2023/07/19 11:42:50;;;;;;;;;;;32.30;61.20;;;;;;4995540;28;19916;-65
2023/07/19 11:45:15;;;;;;;;;;;32.40;61.00;;;;;;4999517;28;19917;-65
2023/07/19 11:47:42;;;;;;;;;;;32.30;61.30;;;;;;5014728;28;19910;-65
2023/07/19 11:50:08;;;;;;;;;;;32.30;62.00;;;;;;5013453;28;19976;-65
2023/07/19 11:52:44;;;;;;;;;;;32.30;62.50;;;;;;5014720;28;20004;-66
2023/07/19 11:55:12;;;;;;;;;;;32.20;62.80;;;;;;5014710;28;20329;-65
2023/07/19 11:57:39;;;;;;;;;;;32.20;63.10;;;;;;5014864;28;19910;-66
2023/07/19 12:00:05;;;;;;;;;;;31.90;63.30;;;;;;5014251;28;19909;-65
2023/07/19 12:02:31;;;;;;;;;;;31.80;63.70;;;;;;5014526;28;19910;-66
2023/07/19 12:04:56;;;;;;;;;;;31.70;64.20;;;;;;5013084;28;19913;-66
2023/07/19 12:07:21;;;;;;;;;;;31.70;64.50;;;;;;5014536;28;19910;-65
2023/07/19 12:09:47;;;;;;;;;;;31.60;64.70;;;;;;5014425;28;19914;-65
2023/07/19 12:12:13;;;;;;;;;;;31.50;64.60;;;;;;5014363;28;19963;-64
2023/07/19 12:14:39;;;;;;;;;;;31.30;64.30;;;;;;5015349;28;19964;-66
2023/07/19 12:17:06;;;;;;;;;;;30.90;65.30;;;;;;5034051;28;19910;-66
2023/07/19 12:19:33;;;;;;;;;;;30.70;65.70;;;;;;5034306;28;19944;-65
2023/07/19 12:21:58;;;;;;;;;;;30.90;65.90;;;;;;5034246;28;20363;-67
2023/07/19 12:24:24;;;;;;;;;;;31.30;65.60;;;;;;5034060;28;19916;-64
2023/07/19 12:26:50;;;;;;;;;;;31.30;65.40;;;;;;5034201;28;19963;-66
2023/07/19 12:29:15;;;;;;;;;;;31.30;65.20;;;;;;5032131;28;19956;-66
2023/07/19 12:31:41;;;;;;;;;;;31.40;65.00;;;;;;5033868;28;19913;-65
2023/07/19 12:34:06;;;;;;;;;;;31.50;64.70;;;;;;5034191;28;19909;-65
2023/07/19 12:36:32;;;;;;;;;;;31.50;64.30;;;;;;5032946;28;20434;-67
2023/07/19 12:38:57;;;;;;;;;;;31.40;63.70;;;;;;5035436;28;20000;-65
2023/07/19 12:41:23;;;;;;;;;;;31.50;64.30;;;;;;5015631;28;20282;-66
2023/07/19 12:43:49;;;;;;;;;;;31.50;63.40;;;;;;4995250;28;20350;-66
2023/07/19 12:46:14;;;;;;;;;;;31.50;64.00;;;;;;5008252;28;19910;-65
2023/07/19 12:48:40;;;;;;;;;;;31.60;64.00;;;;;;4996941;28;19960;-66
2023/07/19 12:51:06;;;;;;;;;;;31.50;63.80;;;;;;5009127;28;20013;-65
2023/07/19 12:53:33;;;;;;;;;;;31.50;63.30;;;;;;4995225;28;19914;-64
2023/07/19 12:55:58;;;;;;;;;;;31.50;62.90;;;;;;4994842;28;19910;-64
2023/07/19 12:58:24;;;;;;;;;;;31.30;63.00;;;;;;4994913;28;19910;-66
2023/07/19 13:00:49;;;;;;;;;;;31.30;63.20;;;;;;4994835;28;19945;-65
2023/07/19 13:03:14;;;;;;;;;;;31.10;63.70;;;;;;4995155;28;20351;-65
2023/07/19 13:05:40;;;;;;;;;;;31.20;64.20;;;;;;4994546;28;19909;-65
2023/07/19 13:08:06;;;;;;;;;;;31.30;64.30;;;;;;4994609;28;19910;-65
2023/07/19 13:10:32;;;;;;;;;;;31.30;63.80;;;;;;4995327;28;19987;-63
2023/07/19 13:12:57;;;;;;;;;;;31.40;63.90;;;;;;4995374;28;20295;-65
2023/07/19 13:15:23;;;;;;;;;;;31.20;64.00;;;;;;5001193;28;19917;-64
2023/07/19 13:17:48;;;;;;;;;;;31.20;63.60;;;;;;5014080;28;19913;-65
2023/07/19 13:20:14;;;;;;;;;;;31.20;64.00;;;;;;5014006;28;19914;-64
2023/07/19 13:22:40;;;;;;;;;;;31.20;64.00;;;;;;5014059;28;19945;-63
2023/07/19 13:25:06;;;;;;;;;;;31.20;63.70;;;;;;5014202;28;19964;-64
2023/07/19 13:27:31;;;;;;;;;;;31.20;64.50;;;;;;5013798;28;19909;-63
2023/07/19 13:29:57;;;;;;;;;;;31.30;64.60;;;;;;5014569;28;19963;-65
2023/07/19 13:32:22;;;;;;;;;;;31.20;64.70;;;;;;5016319;28;20422;-65
2023/07/19 13:34:48;;;;;;;;;;;31.10;63.90;;;;;;5017507;28;19910;-64
2023/07/19 13:37:13;;;;;;;;;;;31.20;64.30;;;;;;5018150;28;20355;-65
2023/07/19 13:39:39;;;;;;;;;;;31.20;64.20;;;;;;5014113;28;19917;-64
2023/07/19 13:42:05;;;;;;;;;;;31.30;64.30;;;;;;5016580;28;19910;-64
2023/07/19 13:44:31;;;;;;;;;;;31.10;64.00;;;;;;5016001;28;20396;-64
2023/07/19 13:46:57;;;;;;;;;;;31.20;63.90;;;;;;4997558;28;19917;-64
2023/07/19 13:49:23;;;;;;;;;;;31.30;63.70;;;;;;4997990;28;19925;-64
2023/07/19 13:51:48;;;;;;;;;;;31.30;62.40;;;;;;4996099;28;19914;-64
2023/07/19 13:54:14;;;;;;;;;;;31.20;61.60;;;;;;4997215;28;19916;-65
2023/07/19 13:56:39;;;;;;;;;;;31.20;62.00;;;;;;4996410;28;20005;-64
2023/07/19 13:59:05;;;;;;;;;;;31.10;61.90;;;;;;5004557;28;19945;-64
2023/07/19 14:01:30;;;;;;;;;;;31.00;62.30;;;;;;5007222;28;19913;-65
2023/07/19 14:03:55;;;;;;;;;;;30.80;62.80;;;;;;5007516;28;19910;-64
2023/07/19 14:06:21;;;;;;;;;;;30.70;63.40;;;;;;5006345;28;19914;-64
2023/07/19 14:08:46;;;;;;;;;;;30.80;63.80;;;;;;5009940;28;19920;-64
2023/07/19 14:11:12;;;;;;;;;;;30.90;63.70;;;;;;5000388;28;19918;-64
2023/07/19 14:13:38;;;;;;;;;;;30.90;63.40;;;;;;5016470;28;19910;-64
2023/07/19 14:16:03;;;;;;;;;;;30.90;63.60;;;;;;5016169;28;19918;-64
2023/07/19 14:18:29;;;;;;;;;;;31.00;63.60;;;;;;5017078;28;19948;-64
2023/07/19 14:20:55;;;;;;;;;;;31.10;63.80;;;;;;5017567;28;20458;-64
2023/07/19 14:23:22;;;;;;;;;;;31.00;63.10;;;;;;5009445;28;19963;-63
2023/07/19 14:25:47;;;;;;;;;;;30.80;63.50;;;;;;4995582;28;19921;-63
2023/07/19 14:28:13;;;;;;;;;;;30.80;63.00;;;;;;4996830;28;19910;-63
2023/07/19 14:30:38;;;;;;;;;;;30.80;63.40;;;;;;4996195;28;19913;-64
2023/07/19 14:33:04;;;;;;;;;;;30.80;63.10;;;;;;4996778;28;19917;-64
2023/07/19 14:35:30;;;;;;;;;;;30.80;64.40;;;;;;4996684;28;19910;-63
2023/07/19 14:37:55;;;;;;;;;;;30.90;63.40;;;;;;4996620;28;19910;-64
2023/07/19 14:40:21;;;;;;;;;;;30.90;62.00;;;;;;4997325;28;19916;-64
2023/07/19 14:42:48;;;;;;;;;;;30.90;60.70;;;;;;4997442;28;19941;-65
2023/07/19 14:45:14;;;;;;;;;;;31.10;61.80;;;;;;5002311;28;19989;-64
2023/07/19 14:47:39;;;;;;;;;;;31.10;60.80;;;;;;5014367;28;19909;-64
2023/07/19 14:50:05;;;;;;;;;;;31.20;61.20;;;;;;5014613;28;19932;-64
2023/07/19 14:52:31;;;;;;;;;;;31.20;60.80;;;;;;5014430;28;20232;-64
2023/07/19 14:54:56;;;;;;;;;;;31.10;60.30;;;;;;5016301;28;19920;-62
2023/07/19 14:57:22;;;;;;;;;;;31.10;59.90;;;;;;5016015;28;19916;-63
2023/07/19 14:59:47;;;;;;;;;;;31.00;60.40;;;;;;5016076;28;20457;-63
2023/07/19 15:02:14;;;;;;;;;;;31.00;60.70;;;;;;5015299;28;19909;-64
2023/07/19 15:04:40;;;;;;;;;;;31.00;60.50;;;;;;5014401;28;20047;-64
2023/07/19 15:07:06;;;;;;;;;;;30.90;60.20;;;;;;5016212;28;19948;-64
2023/07/19 15:09:32;;;;;;;;;;;30.70;60.40;;;;;;5016042;28;19909;-64
2023/07/19 15:11:57;;;;;;;;;;;30.70;61.00;;;;;;5015773;28;19927;-64
2023/07/19 15:14:23;;;;;;;;;;;30.50;61.00;;;;;;5015069;28;20004;-64
2023/07/19 15:16:48;;;;;;;;;;;30.40;61.60;;;;;;5015135;28;19910;-64
2023/07/19 15:19:14;;;;;;;;;;;30.30;62.20;;;;;;5014039;28;19984;-64
2023/07/19 15:21:39;;;;;;;;;;;30.20;62.30;;;;;;5015636;28;19913;-64
2023/07/19 15:24:05;;;;;;;;;;;30.10;62.30;;;;;;5015234;28;20000;-64
2023/07/19 15:26:31;;;;;;;;;;;30.10;62.40;;;;;;5015195;28;19979;-64
2023/07/19 15:28:56;;;;;;;;;;;30.30;62.80;;;;;;5016248;28;20561;-63
2023/07/19 15:31:22;;;;;;;;;;;30.40;61.50;;;;;;5021051;28;19914;-62
2023/07/19 15:33:47;;;;;;;;;;;30.40;61.50;;;;;;5015891;28;20255;-62
2023/07/19 15:36:13;;;;;;;;;;;30.40;61.00;;;;;;5013574;28;20056;-62
2023/07/19 15:38:40;;;;;;;;;;;30.50;60.00;;;;;;5015179;28;19910;-62
2023/07/19 15:41:06;;;;;;;;;;;30.40;59.70;;;;;;5014861;28;19913;-62
2023/07/19 15:43:32;;;;;;;;;;;30.30;59.90;;;;;;5005023;28;19914;-63
2023/07/19 15:45:57;;;;;;;;;;;30.20;60.30;;;;;;4996235;28;19972;-62
2023/07/19 15:48:23;;;;;;;;;;;29.90;59.20;;;;;;5010349;28;19916;-62
2023/07/19 15:50:48;;;;;;;;;;;30.00;59.40;;;;;;4998806;28;19980;-62
2023/07/19 15:53:14;;;;;;;;;;;30.00;59.30;;;;;;5006100;28;19910;-62
2023/07/19 15:55:40;;;;;;;;;;;30.10;59.60;;;;;;5000977;28;19919;-62
2023/07/19 15:58:05;;;;;;;;;;;29.90;59.30;;;;;;5000394;28;20412;-63
2023/07/19 16:00:31;;;;;;;;;;;29.90;58.90;;;;;;5002316;28;19910;-64
2023/07/19 16:02:57;;;;;;;;;;;29.90;58.80;;;;;;5003524;28;19973;-64
2023/07/19 16:05:24;;;;;;;;;;;29.80;59.30;;;;;;5030276;28;19963;-63
2023/07/19 16:07:50;;;;;;;;;;;29.80;58.90;;;;;;4997476;28;19910;-64
2023/07/19 16:10:15;;;;;;;;;;;29.80;58.70;;;;;;5009264;28;19917;-63
2023/07/19 16:12:41;;;;;;;;;;;29.70;58.50;;;;;;4995246;28;19917;-64
2023/07/19 16:15:07;;;;;;;;;;;29.70;58.90;;;;;;4999956;28;20008;-64
2023/07/19 16:17:32;;;;;;;;;;;29.60;58.90;;;;;;5014489;28;19964;-64
2023/07/19 16:19:58;;;;;;;;;;;29.70;58.90;;;;;;4998887;28;19920;-63
2023/07/19 16:22:23;;;;;;;;;;;29.70;59.00;;;;;;5001764;28;19914;-63
2023/07/19 16:24:49;;;;;;;;;;;29.60;58.50;;;;;;4994529;28;19956;-63
2023/07/19 16:27:15;;;;;;;;;;;29.50;58.70;;;;;;5006722;28;20347;-66
2023/07/19 16:29:40;;;;;;;;;;;29.60;59.40;;;;;;5005008;28;20386;-66
2023/07/19 16:32:07;;;;;;;;;;;29.60;59.60;;;;;;5003934;28;20234;-66
2023/07/19 16:34:33;;;;;;;;;;;29.70;59.60;;;;;;4999281;28;19920;-66
2023/07/19 16:36:59;;;;;;;;;;;29.70;59.70;;;;;;5007438;28;19914;-66
2023/07/19 16:39:24;;;;;;;;;;;29.60;59.50;;;;;;5004087;28;19909;-66
2023/07/19 16:41:50;;;;;;;;;;;29.50;59.20;;;;;;4999158;28;19964;-66
2023/07/19 16:44:15;;;;;;;;;;;29.50;59.50;;;;;;5011202;28;19977;-66
2023/07/19 16:46:44;;;;;;;;;;;29.40;59.50;;;;;;5006357;28;19945;-64
2023/07/19 16:49:10;;;;;;;;;;;29.30;59.80;;;;;;4999261;28;19913;-65
2023/07/19 16:51:35;;;;;;;;;;;29.20;60.00;;;;;;5010257;28;20255;-66
2023/07/19 16:54:01;;;;;;;;;;;29.20;60.20;;;;;;4999364;28;20355;-64
2023/07/19 16:56:26;;;;;;;;;;;29.20;60.30;;;;;;5005157;28;19910;-64
2023/07/19 16:58:52;;;;;;;;;;;29.00;60.30;;;;;;5000405;28;20298;-64
2023/07/19 17:01:17;;;;;;;;;;;28.90;60.50;;;;;;5003381;28;20286;-65
2023/07/19 17:03:43;;;;;;;;;;;28.90;60.70;;;;;;5002164;28;19939;-65
2023/07/19 17:06:08;;;;;;;;;;;28.90;61.10;;;;;;5010704;28;19917;-64
2023/07/19 17:08:34;;;;;;;;;;;28.90;61.30;;;;;;4997740;28;19916;-64
2023/07/19 17:10:59;;;;;;;;;;;28.80;61.60;;;;;;5005908;28;19914;-65
2023/07/19 17:13:25;;;;;;;;;;;28.60;61.80;;;;;;5027269;28;19913;-65
2023/07/19 17:15:50;;;;;;;;;;;28.50;62.00;;;;;;5007666;28;19951;-64
2023/07/19 17:18:15;;;;;;;;;;;28.40;62.10;;;;;;5001398;28;19909;-65
2023/07/19 17:20:41;;;;;;;;;;;28.30;62.10;;;;;;5008536;28;19915;-64
2023/07/19 17:23:06;;;;;;;;;;;28.30;62.20;;;;;;5003517;28;19968;-64
2023/07/19 17:25:33;;;;;;;;;;;28.20;62.30;;;;;;5006154;28;19913;-65
2023/07/19 17:27:59;;;;;;;;;;;28.20;62.70;;;;;;5012702;28;19909;-64
2023/07/19 17:30:24;;;;;;;;;;;28.30;62.90;;;;;;5000816;28;20298;-64
2023/07/19 17:32:50;;;;;;;;;;;28.20;62.60;;;;;;5011450;28;19910;-64
2023/07/19 17:35:15;;;;;;;;;;;28.10;63.00;;;;;;4997471;28;19910;-65
2023/07/19 17:37:41;;;;;;;;;;;28.00;63.20;;;;;;4997645;28;19932;-65
2023/07/19 17:40:07;;;;;;;;;;;27.90;63.10;;;;;;4998192;28;19933;-66
2023/07/19 17:42:32;;;;;;;;;;;27.80;63.40;;;;;;4997636;28;20011;-65
2023/07/19 17:44:58;;;;;;;;;;;27.70;63.50;;;;;;5001037;28;19913;-64
2023/07/19 17:47:23;;;;;;;;;;;27.60;63.80;;;;;;5016581;28;19910;-65
2023/07/19 17:49:49;;;;;;;;;;;27.50;64.00;;;;;;5017041;28;19916;-64
2023/07/19 17:52:14;;;;;;;;;;;27.50;64.00;;;;;;5016982;28;19914;-64
2023/07/19 17:54:39;;;;;;;;;;;27.40;64.10;;;;;;5017095;28;19909;-64
2023/07/19 17:57:06;;;;;;;;;;;27.40;64.10;;;;;;5015477;28;19910;-64
2023/07/19 17:59:31;;;;;;;;;;;27.40;64.30;;;;;;5017506;28;19909;-64
2023/07/19 18:01:57;;;;;;;;;;;27.40;64.40;;;;;;5017228;28;20397;-64
2023/07/19 18:04:22;;;;;;;;;;;27.30;64.70;;;;;;5017077;28;20009;-63
2023/07/19 18:06:48;;;;;;;;;;;27.20;64.90;;;;;;5016985;28;20274;-65
2023/07/19 18:09:13;;;;;;;;;;;27.20;65.10;;;;;;5016774;28;19909;-64